sensor_id;sensor_type;location;lat;lon;timestamp;pressure;altitude;pressure_sealevel;temperature;humidity
51829;BME280;37881;48.024;8.774;2023-08-24T00:00:49;94205.72;;;19.18;100.00
51829;BME280;37881;48.024;8.774;2023-08-24T00:03:16;94207.09;;;19.32;100.00
51829;BME280;37881;48.024;8.774;2023-08-24T00:05:43;94202.44;;;19.38;100.00
51829;BME280;37881;48.024;8.774;2023-08-24T00:08:10;94209.25;;;19.37;100.00
51829;BME280;37881;48.024;8.774;2023-08-24T00:10:38;94201.50;;;19.41;100.00
51829;BME280;37881;48.024;8.774;2023-08-24T00:13:05;94207.84;;;19.42;100.00
51829;BME280;37881;48.024;8.774;2023-08-24T00:15:32;94208.16;;;19.34;100.00
51829;BME280;37881;48.024;8.774;2023-08-24T00:17:58;94200.91;;;19.28;100.00
51829;BME280;37881;48.024;8.774;2023-08-24T00:20:25;94210.94;;;19.25;100.00
51829;BME280;37881;48.024;8.774;2023-08-24T00:22:53;94204.47;;;19.28;100.00
51829;BME280;37881;48.024;8.774;2023-08-24T00:25:20;94205.53;;;19.31;100.00
51829;BME280;37881;48.024;8.774;2023-08-24T00:27:47;94210.94;;;19.34;100.00
51829;BME280;37881;48.024;8.774;2023-08-24T00:30:15;94205.84;;;19.33;100.00
51829;BME280;37881;48.024;8.774;2023-08-24T00:32:41;94202.91;;;19.27;100.00
51829;BME280;37881;48.024;8.774;2023-08-24T00:35:09;94195.66;;;19.30;100.00
51829;BME280;37881;48.024;8.774;2023-08-24T00:37:37;94195.50;;;19.24;100.00
51829;BME280;37881;48.024;8.774;2023-08-24T00:40:06;94189.63;;;19.22;100.00
51829;BME280;37881;48.024;8.774;2023-08-24T00:42:40;94178.50;;;19.22;100.00
51829;BME280;37881;48.024;8.774;2023-08-24T00:45:08;94180.38;;;19.16;100.00
51829;BME280;37881;48.024;8.774;2023-08-24T00:47:37;94172.47;;;19.14;100.00
51829;BME280;37881;48.024;8.774;2023-08-24T00:50:06;94179.44;;;19.10;100.00
51829;BME280;37881;48.024;8.774;2023-08-24T00:52:36;94180.97;;;19.11;100.00
51829;BME280;37881;48.024;8.774;2023-08-24T00:55:03;94171.41;;;18.84;100.00
51829;BME280;37881;48.024;8.774;2023-08-24T00:57:31;94175.41;;;18.83;100.00
51829;BME280;37881;48.024;8.774;2023-08-24T00:59:59;94182.69;;;18.81;100.00
51829;BME280;37881;48.024;8.774;2023-08-24T01:02:27;94169.09;;;18.83;100.00
51829;BME280;37881;48.024;8.774;2023-08-24T01:04:54;94175.59;;;18.80;100.00
51829;BME280;37881;48.024;8.774;2023-08-24T01:07:20;94171.41;;;18.84;100.00
51829;BME280;37881;48.024;8.774;2023-08-24T01:09:47;94165.84;;;18.84;100.00
51829;BME280;37881;48.024;8.774;2023-08-24T01:15:13;94169.53;;;18.72;100.00
51829;BME280;37881;48.024;8.774;2023-08-24T01:17:43;94172.47;;;18.77;100.00
51829;BME280;37881;48.024;8.774;2023-08-24T01:20:10;94162.41;;;18.71;100.00
51829;BME280;37881;48.024;8.774;2023-08-24T01:22:49;94169.81;;;18.65;100.00
51829;BME280;37881;48.024;8.774;2023-08-24T01:27:53;94159.81;;;18.67;100.00
51829;BME280;37881;48.024;8.774;2023-08-24T01:30:21;94150.97;;;18.69;100.00
51829;BME280;37881;48.024;8.774;2023-08-24T01:32:48;94146.78;;;18.55;100.00
51829;BME280;37881;48.024;8.774;2023-08-24T01:35:15;94148.50;;;18.43;100.00
51829;BME280;37881;48.024;8.774;2023-08-24T01:37:42;94138.47;;;18.46;100.00
51829;BME280;37881;48.024;8.774;2023-08-24T01:40:17;94131.34;;;18.45;100.00
51829;BME280;37881;48.024;8.774;2023-08-24T01:43:04;94141.38;;;18.42;100.00
51829;BME280;37881;48.024;8.774;2023-08-24T01:45:32;94141.25;;;18.46;100.00
51829;BME280;37881;48.024;8.774;2023-08-24T01:48:02;94137.22;;;18.38;100.00
51829;BME280;37881;48.024;8.774;2023-08-24T01:50:30;94137.69;;;18.36;100.00
51829;BME280;37881;48.024;8.774;2023-08-24T01:52:57;94131.00;;;18.24;100.00
51829;BME280;37881;48.024;8.774;2023-08-24T01:55:25;94137.03;;;18.13;100.00
51829;BME280;37881;48.024;8.774;2023-08-24T01:57:52;94123.63;;;18.21;100.00
51829;BME280;37881;48.024;8.774;2023-08-24T02:00:19;94113.75;;;18.29;100.00
51829;BME280;37881;48.024;8.774;2023-08-24T02:02:45;94116.66;;;18.35;100.00
51829;BME280;37881;48.024;8.774;2023-08-24T02:05:12;94103.41;;;18.30;100.00
51829;BME280;37881;48.024;8.774;2023-08-24T02:07:40;94115.75;;;18.38;100.00
51829;BME280;37881;48.024;8.774;2023-08-24T02:10:09;94104.19;;;18.40;100.00
51829;BME280;37881;48.024;8.774;2023-08-24T02:12:36;94108.19;;;18.39;100.00
51829;BME280;37881;48.024;8.774;2023-08-24T02:15:03;94105.41;;;18.20;100.00
51829;BME280;37881;48.024;8.774;2023-08-24T02:17:30;94103.69;;;18.23;100.00
51829;BME280;37881;48.024;8.774;2023-08-24T02:19:56;94095.84;;;18.21;100.00
51829;BME280;37881;48.024;8.774;2023-08-24T02:22:23;94097.69;;;18.24;100.00
51829;BME280;37881;48.024;8.774;2023-08-24T02:24:50;94096.91;;;18.24;100.00
51829;BME280;37881;48.024;8.774;2023-08-24T02:27:17;94088.41;;;18.18;100.00
51829;BME280;37881;48.024;8.774;2023-08-24T02:29:44;94091.34;;;18.14;100.00
51829;BME280;37881;48.024;8.774;2023-08-24T02:32:11;94087.78;;;18.14;100.00
51829;BME280;37881;48.024;8.774;2023-08-24T02:34:38;94081.78;;;18.15;100.00
51829;BME280;37881;48.024;8.774;2023-08-24T02:37:06;94083.31;;;18.16;100.00
51829;BME280;37881;48.024;8.774;2023-08-24T02:39:32;94081.34;;;18.17;100.00
51829;BME280;37881;48.024;8.774;2023-08-24T02:41:59;94092.25;;;18.02;100.00
51829;BME280;37881;48.024;8.774;2023-08-24T02:44:26;94088.97;;;17.85;100.00
51829;BME280;37881;48.024;8.774;2023-08-24T02:46:53;94088.41;;;17.59;100.00
51829;BME280;37881;48.024;8.774;2023-08-24T02:49:20;94079.00;;;17.66;100.00
51829;BME280;37881;48.024;8.774;2023-08-24T02:51:47;94082.91;;;17.77;100.00
51829;BME280;37881;48.024;8.774;2023-08-24T02:54:13;94083.22;;;17.80;100.00
51829;BME280;37881;48.024;8.774;2023-08-24T02:56:40;94077.22;;;17.81;100.00
51829;BME280;37881;48.024;8.774;2023-08-24T02:59:07;94078.63;;;17.86;100.00
51829;BME280;37881;48.024;8.774;2023-08-24T03:01:34;94078.50;;;17.89;100.00
51829;BME280;37881;48.024;8.774;2023-08-24T03:04:04;94081.44;;;17.95;100.00
51829;BME280;37881;48.024;8.774;2023-08-24T03:06:31;94081.91;;;17.93;100.00
51829;BME280;37881;48.024;8.774;2023-08-24T03:09:00;94074.31;;;17.85;100.00
51829;BME280;37881;48.024;8.774;2023-08-24T03:11:27;94073.25;;;17.91;100.00
51829;BME280;37881;48.024;8.774;2023-08-24T03:13:54;94075.25;;;17.91;100.00
51829;BME280;37881;48.024;8.774;2023-08-24T03:16:21;94078.63;;;17.86;100.00
51829;BME280;37881;48.024;8.774;2023-08-24T03:18:48;94074.63;;;17.87;100.00
51829;BME280;37881;48.024;8.774;2023-08-24T03:21:16;94078.19;;;17.96;100.00
51829;BME280;37881;48.024;8.774;2023-08-24T03:23:42;94075.41;;;17.96;100.00
51829;BME280;37881;48.024;8.774;2023-08-24T03:26:09;94071.09;;;18.05;100.00
51829;BME280;37881;48.024;8.774;2023-08-24T03:28:36;94077.75;;;18.07;100.00
51829;BME280;37881;48.024;8.774;2023-08-24T03:31:03;94065.56;;;18.14;100.00
51829;BME280;37881;48.024;8.774;2023-08-24T03:33:30;94065.41;;;17.99;100.00
51829;BME280;37881;48.024;8.774;2023-08-24T03:35:57;94062.75;;;17.86;100.00
51829;BME280;37881;48.024;8.774;2023-08-24T03:38:24;94055.03;;;17.90;100.00
51829;BME280;37881;48.024;8.774;2023-08-24T03:40:50;94060.41;;;17.85;100.00
51829;BME280;37881;48.024;8.774;2023-08-24T03:43:17;94062.91;;;17.92;100.00
51829;BME280;37881;48.024;8.774;2023-08-24T03:45:44;94055.22;;;17.96;100.00
51829;BME280;37881;48.024;8.774;2023-08-24T03:48:11;94051.97;;;17.98;100.00
51829;BME280;37881;48.024;8.774;2023-08-24T03:50:37;94052.91;;;18.04;100.00
51829;BME280;37881;48.024;8.774;2023-08-24T03:53:06;94042.25;;;17.93;100.00
51829;BME280;37881;48.024;8.774;2023-08-24T03:55:32;94044.41;;;17.98;100.00
51829;BME280;37881;48.024;8.774;2023-08-24T03:57:59;94039.88;;;17.82;100.00
51829;BME280;37881;48.024;8.774;2023-08-24T04:00:26;94036.53;;;17.87;100.00
51829;BME280;37881;48.024;8.774;2023-08-24T04:02:53;94044.09;;;17.96;100.00
51829;BME280;37881;48.024;8.774;2023-08-24T04:05:20;94045.50;;;18.01;100.00
51829;BME280;37881;48.024;8.774;2023-08-24T04:07:46;94050.72;;;17.99;100.00
51829;BME280;37881;48.024;8.774;2023-08-24T04:10:14;94050.28;;;18.00;100.00
51829;BME280;37881;48.024;8.774;2023-08-24T04:12:41;94038.34;;;17.81;100.00
51829;BME280;37881;48.024;8.774;2023-08-24T04:15:08;94044.00;;;17.59;100.00
51829;BME280;37881;48.024;8.774;2023-08-24T04:17:35;94034.56;;;17.56;100.00
51829;BME280;37881;48.024;8.774;2023-08-24T04:20:02;94044.81;;;17.69;100.00
51829;BME280;37881;48.024;8.774;2023-08-24T04:22:30;94048.34;;;17.78;100.00
51829;BME280;37881;48.024;8.774;2023-08-24T04:24:57;94050.97;;;17.73;100.00
51829;BME280;37881;48.024;8.774;2023-08-24T04:27:24;94052.81;;;17.76;100.00
51829;BME280;37881;48.024;8.774;2023-08-24T04:29:50;94054.75;;;17.48;100.00
51829;BME280;37881;48.024;8.774;2023-08-24T04:32:17;94052.59;;;17.52;100.00
51829;BME280;37881;48.024;8.774;2023-08-24T04:34:44;94048.94;;;17.64;100.00
51829;BME280;37881;48.024;8.774;2023-08-24T04:37:10;94047.09;;;17.61;100.00
51829;BME280;37881;48.024;8.774;2023-08-24T04:39:37;94054.97;;;17.63;100.00
51829;BME280;37881;48.024;8.774;2023-08-24T04:42:04;94051.56;;;17.68;100.00
51829;BME280;37881;48.024;8.774;2023-08-24T04:44:32;94051.59;;;17.77;100.00
51829;BME280;37881;48.024;8.774;2023-08-24T04:46:59;94051.63;;;17.86;100.00
51829;BME280;37881;48.024;8.774;2023-08-24T04:49:25;94041.28;;;17.77;100.00
51829;BME280;37881;48.024;8.774;2023-08-24T04:51:52;94048.56;;;17.84;100.00
51829;BME280;37881;48.024;8.774;2023-08-24T04:54:19;94039.13;;;17.82;100.00
51829;BME280;37881;48.024;8.774;2023-08-24T04:56:46;94032.28;;;17.64;100.00
51829;BME280;37881;48.024;8.774;2023-08-24T04:59:12;94034.28;;;17.64;100.00
51829;BME280;37881;48.024;8.774;2023-08-24T05:01:39;94035.28;;;17.88;100.00
51829;BME280;37881;48.024;8.774;2023-08-24T05:04:06;94037.03;;;18.23;100.00
51829;BME280;37881;48.024;8.774;2023-08-24T05:06:33;94022.66;;;18.52;100.00
51829;BME280;37881;48.024;8.774;2023-08-24T05:08:59;94025.13;;;18.68;100.00
51829;BME280;37881;48.024;8.774;2023-08-24T05:11:28;94018.00;;;18.76;100.00
51829;BME280;37881;48.024;8.774;2023-08-24T05:13:57;94013.84;;;18.63;100.00
51829;BME280;37881;48.024;8.774;2023-08-24T05:16:24;94014.44;;;18.76;100.00
51829;BME280;37881;48.024;8.774;2023-08-24T05:18:51;94029.75;;;18.90;100.00
51829;BME280;37881;48.024;8.774;2023-08-24T05:21:18;94021.81;;;19.07;100.00
51829;BME280;37881;48.024;8.774;2023-08-24T05:23:44;94016.69;;;19.14;100.00
51829;BME280;37881;48.024;8.774;2023-08-24T05:26:11;94019.19;;;19.03;100.00
51829;BME280;37881;48.024;8.774;2023-08-24T05:28:38;94020.13;;;19.00;100.00
51829;BME280;37881;48.024;8.774;2023-08-24T05:31:04;94010.91;;;18.85;100.00
51829;BME280;37881;48.024;8.774;2023-08-24T05:33:31;94015.78;;;19.08;100.00
51829;BME280;37881;48.024;8.774;2023-08-24T05:35:59;94016.53;;;19.18;100.00
51829;BME280;37881;48.024;8.774;2023-08-24T05:38:26;94011.59;;;19.13;100.00
51829;BME280;37881;48.024;8.774;2023-08-24T05:40:53;94013.97;;;19.39;100.00
51829;BME280;37881;48.024;8.774;2023-08-24T05:43:20;94005.00;;;19.44;100.00
51829;BME280;37881;48.024;8.774;2023-08-24T05:45:48;94015.25;;;19.28;100.00
51829;BME280;37881;48.024;8.774;2023-08-24T05:48:15;94012.97;;;19.51;100.00
51829;BME280;37881;48.024;8.774;2023-08-24T05:50:43;94002.00;;;19.47;100.00
51829;BME280;37881;48.024;8.774;2023-08-24T05:53:10;94002.41;;;19.64;100.00
51829;BME280;37881;48.024;8.774;2023-08-24T05:55:37;94004.84;;;19.95;100.00
51829;BME280;37881;48.024;8.774;2023-08-24T05:58:04;94006.34;;;20.45;100.00
51829;BME280;37881;48.024;8.774;2023-08-24T06:00:31;94000.81;;;20.60;100.00
51829;BME280;37881;48.024;8.774;2023-08-24T06:02:58;94000.81;;;21.04;100.00
51829;BME280;37881;48.024;8.774;2023-08-24T06:05:25;94003.47;;;21.58;100.00
51829;BME280;37881;48.024;8.774;2023-08-24T06:07:52;94000.59;;;21.52;100.00
51829;BME280;37881;48.024;8.774;2023-08-24T06:10:20;94007.72;;;21.53;100.00
51829;BME280;37881;48.024;8.774;2023-08-24T06:12:46;94005.72;;;21.39;100.00
51829;BME280;37881;48.024;8.774;2023-08-24T06:15:13;94001.41;;;21.73;100.00
51829;BME280;37881;48.024;8.774;2023-08-24T06:17:40;93999.34;;;22.09;100.00
51829;BME280;37881;48.024;8.774;2023-08-24T06:20:08;94004.09;;;22.44;100.00
51829;BME280;37881;48.024;8.774;2023-08-24T06:22:37;94002.00;;;22.60;100.00
51829;BME280;37881;48.024;8.774;2023-08-24T06:25:05;94006.00;;;22.32;100.00
51829;BME280;37881;48.024;8.774;2023-08-24T06:27:31;94011.22;;;22.04;100.00
51829;BME280;37881;48.024;8.774;2023-08-24T06:29:58;94003.59;;;21.84;100.00
51829;BME280;37881;48.024;8.774;2023-08-24T06:32:25;94002.47;;;22.17;100.00
51829;BME280;37881;48.024;8.774;2023-08-24T06:34:52;93998.28;;;22.07;100.00
51829;BME280;37881;48.024;8.774;2023-08-24T06:37:18;93998.19;;;22.01;100.00
51829;BME280;37881;48.024;8.774;2023-08-24T06:39:45;93999.34;;;22.09;100.00
51829;BME280;37881;48.024;8.774;2023-08-24T06:42:12;93994.00;;;21.70;100.00
51829;BME280;37881;48.024;8.774;2023-08-24T06:44:39;94000.03;;;21.33;100.00
51829;BME280;37881;48.024;8.774;2023-08-24T06:47:05;94000.00;;;21.63;100.00
51829;BME280;37881;48.024;8.774;2023-08-24T06:49:32;93990.38;;;21.85;100.00
51829;BME280;37881;48.024;8.774;2023-08-24T06:51:59;93996.47;;;21.83;100.00
51829;BME280;37881;48.024;8.774;2023-08-24T06:54:26;93991.00;;;22.15;100.00
51829;BME280;37881;48.024;8.774;2023-08-24T06:56:54;93982.69;;;22.41;100.00
51829;BME280;37881;48.024;8.774;2023-08-24T06:59:21;93991.94;;;22.27;100.00
51829;BME280;37881;48.024;8.774;2023-08-24T07:01:48;93996.47;;;22.04;100.00
51829;BME280;37881;48.024;8.774;2023-08-24T07:04:15;93992.84;;;22.18;100.00
51829;BME280;37881;48.024;8.774;2023-08-24T07:06:41;94003.66;;;22.72;100.00
51829;BME280;37881;48.024;8.774;2023-08-24T07:09:10;94006.59;;;23.15;100.00
51829;BME280;37881;48.024;8.774;2023-08-24T07:11:36;94008.59;;;23.09;100.00
51829;BME280;37881;48.024;8.774;2023-08-24T07:14:03;94014.19;;;23.09;100.00
51829;BME280;37881;48.024;8.774;2023-08-24T07:16:30;94014.59;;;23.60;100.00
51829;BME280;37881;48.024;8.774;2023-08-24T07:18:57;94003.97;;;24.12;100.00
51829;BME280;37881;48.024;8.774;2023-08-24T07:21:24;94001.44;;;24.86;100.00
51829;BME280;37881;48.024;8.774;2023-08-24T07:23:50;94006.25;;;24.74;100.00
51829;BME280;37881;48.024;8.774;2023-08-24T07:26:17;94009.91;;;25.14;100.00
51829;BME280;37881;48.024;8.774;2023-08-24T07:28:44;94005.31;;;25.79;100.00
51829;BME280;37881;48.024;8.774;2023-08-24T07:31:11;94001.06;;;27.66;91.90
51829;BME280;37881;48.024;8.774;2023-08-24T07:33:38;93994.72;;;30.26;77.68
51829;BME280;37881;48.024;8.774;2023-08-24T07:36:10;93994.22;;;32.20;68.72
51829;BME280;37881;48.024;8.774;2023-08-24T07:38:37;93994.13;;;32.62;60.87
51829;BME280;37881;48.024;8.774;2023-08-24T07:41:04;93992.72;;;32.84;61.09
51829;BME280;37881;48.024;8.774;2023-08-24T07:43:30;93993.91;;;35.12;52.25
51829;BME280;37881;48.024;8.774;2023-08-24T07:45:58;93988.06;;;36.44;47.43
51829;BME280;37881;48.024;8.774;2023-08-24T07:48:26;93995.53;;;35.96;45.36
51829;BME280;37881;48.024;8.774;2023-08-24T07:50:52;93996.56;;;36.09;43.46
51829;BME280;37881;48.024;8.774;2023-08-24T07:53:19;93991.06;;;34.02;47.82
51829;BME280;37881;48.024;8.774;2023-08-24T07:55:46;93992.78;;;33.98;48.29
51829;BME280;37881;48.024;8.774;2023-08-24T07:58:13;93992.00;;;32.99;51.25
51829;BME280;37881;48.024;8.774;2023-08-24T08:00:40;93993.34;;;32.33;54.00
51829;BME280;37881;48.024;8.774;2023-08-24T08:03:07;93980.34;;;31.67;57.13
51829;BME280;37881;48.024;8.774;2023-08-24T08:05:34;93997.88;;;33.53;50.57
51829;BME280;37881;48.024;8.774;2023-08-24T08:08:01;93996.25;;;33.14;52.42
51829;BME280;37881;48.024;8.774;2023-08-24T08:10:27;93993.84;;;31.19;59.04
51829;BME280;37881;48.024;8.774;2023-08-24T08:12:54;93987.47;;;31.81;58.78
51829;BME280;37881;48.024;8.774;2023-08-24T08:15:21;93994.47;;;32.59;56.61
51829;BME280;37881;48.024;8.774;2023-08-24T08:17:48;93993.13;;;34.48;50.16
51829;BME280;37881;48.024;8.774;2023-08-24T08:20:15;93981.66;;;35.27;47.82
51829;BME280;37881;48.024;8.774;2023-08-24T08:22:42;93984.66;;;35.70;45.50
51829;BME280;37881;48.024;8.774;2023-08-24T08:25:09;93987.81;;;35.82;45.28
51829;BME280;37881;48.024;8.774;2023-08-24T08:27:36;93974.56;;;34.24;49.07
51829;BME280;37881;48.024;8.774;2023-08-24T08:30:03;93969.44;;;33.99;49.42
51829;BME280;37881;48.024;8.774;2023-08-24T08:32:31;93973.47;;;36.92;43.64
51829;BME280;37881;48.024;8.774;2023-08-24T08:34:59;93973.22;;;38.53;38.36
51829;BME280;37881;48.024;8.774;2023-08-24T08:37:27;93975.78;;;39.37;37.78
51829;BME280;37881;48.024;8.774;2023-08-24T08:39:54;93971.31;;;40.16;34.60
51829;BME280;37881;48.024;8.774;2023-08-24T08:42:21;93978.09;;;40.95;33.64
51829;BME280;37881;48.024;8.774;2023-08-24T08:44:48;93962.53;;;40.45;34.40
51829;BME280;37881;48.024;8.774;2023-08-24T08:47:20;93972.78;;;39.05;36.72
51829;BME280;37881;48.024;8.774;2023-08-24T08:49:48;93969.50;;;40.42;34.34
51829;BME280;37881;48.024;8.774;2023-08-24T08:52:14;93969.44;;;40.51;33.59
51829;BME280;37881;48.024;8.774;2023-08-24T08:54:42;93970.75;;;40.07;34.94
51829;BME280;37881;48.024;8.774;2023-08-24T08:57:09;93973.84;;;38.81;36.48
51829;BME280;37881;48.024;8.774;2023-08-24T08:59:36;93973.63;;;38.40;37.72
51829;BME280;37881;48.024;8.774;2023-08-24T09:02:04;93965.81;;;38.03;38.07
51829;BME280;37881;48.024;8.774;2023-08-24T09:04:31;93970.91;;;37.95;37.29
51829;BME280;37881;48.024;8.774;2023-08-24T09:06:59;93963.22;;;37.33;38.53
51829;BME280;37881;48.024;8.774;2023-08-24T09:09:30;93963.38;;;34.97;43.72
51829;BME280;37881;48.024;8.774;2023-08-24T09:11:58;93957.06;;;36.57;41.51
51829;BME280;37881;48.024;8.774;2023-08-24T09:14:25;93961.09;;;36.54;40.24
51829;BME280;37881;48.024;8.774;2023-08-24T09:16:52;93949.44;;;38.23;37.92
51829;BME280;37881;48.024;8.774;2023-08-24T09:19:27;93954.66;;;37.97;37.70
51829;BME280;37881;48.024;8.774;2023-08-24T09:21:57;93947.56;;;40.15;35.20
51829;BME280;37881;48.024;8.774;2023-08-24T09:24:35;93951.56;;;41.63;32.63
51829;BME280;37881;48.024;8.774;2023-08-24T09:27:21;93943.28;;;42.40;30.54
51829;BME280;37881;48.024;8.774;2023-08-24T09:29:49;93939.25;;;40.84;32.32
51829;BME280;37881;48.024;8.774;2023-08-24T09:32:30;93938.22;;;41.12;31.57
51829;BME280;37881;48.024;8.774;2023-08-24T09:35:08;93932.66;;;42.30;30.45
51829;BME280;37881;48.024;8.774;2023-08-24T09:37:36;93917.84;;;40.87;31.01
51829;BME280;37881;48.024;8.774;2023-08-24T09:40:05;93917.63;;;40.40;32.76
51829;BME280;37881;48.024;8.774;2023-08-24T09:42:38;93925.50;;;41.72;30.77
51829;BME280;37881;48.024;8.774;2023-08-24T09:45:07;93918.59;;;41.89;30.75
51829;BME280;37881;48.024;8.774;2023-08-24T09:47:36;93920.03;;;42.12;30.17
51829;BME280;37881;48.024;8.774;2023-08-24T09:50:04;93918.13;;;43.41;28.48
51829;BME280;37881;48.024;8.774;2023-08-24T09:52:32;93914.59;;;41.14;31.32
51829;BME280;37881;48.024;8.774;2023-08-24T09:55:04;93913.78;;;41.47;30.31
51829;BME280;37881;48.024;8.774;2023-08-24T09:57:37;93901.19;;;42.23;29.32
51829;BME280;37881;48.024;8.774;2023-08-24T10:00:08;93894.19;;;40.55;31.12
51829;BME280;37881;48.024;8.774;2023-08-24T10:02:49;93893.06;;;42.07;29.09
51829;BME280;37881;48.024;8.774;2023-08-24T10:05:20;93893.66;;;38.92;33.18
51829;BME280;37881;48.024;8.774;2023-08-24T10:07:56;93892.44;;;41.62;30.50
51829;BME280;37881;48.024;8.774;2023-08-24T10:10:29;93882.09;;;42.41;29.01
51829;BME280;37881;48.024;8.774;2023-08-24T10:13:03;93878.78;;;43.47;27.39
51829;BME280;37881;48.024;8.774;2023-08-24T10:15:32;93874.84;;;43.68;27.02
51829;BME280;37881;48.024;8.774;2023-08-24T10:18:01;93881.97;;;40.66;29.22
51829;BME280;37881;48.024;8.774;2023-08-24T10:20:28;93865.81;;;42.34;28.27
51829;BME280;37881;48.024;8.774;2023-08-24T10:22:57;93871.16;;;42.52;27.71
51829;BME280;37881;48.024;8.774;2023-08-24T10:25:24;93866.44;;;41.26;28.86
51829;BME280;37881;48.024;8.774;2023-08-24T10:27:51;93860.56;;;40.36;30.57
51829;BME280;37881;48.024;8.774;2023-08-24T10:30:20;93858.81;;;42.14;28.99
51829;BME280;37881;48.024;8.774;2023-08-24T10:32:47;93855.13;;;42.74;26.73
51829;BME280;37881;48.024;8.774;2023-08-24T10:35:16;93850.19;;;40.64;29.83
51829;BME280;37881;48.024;8.774;2023-08-24T10:37:44;93852.00;;;40.05;30.40
51829;BME280;37881;48.024;8.774;2023-08-24T10:40:13;93846.44;;;42.11;28.04
51829;BME280;37881;48.024;8.774;2023-08-24T10:42:44;93833.19;;;40.68;30.16
51829;BME280;37881;48.024;8.774;2023-08-24T10:45:14;93829.41;;;41.56;28.92
51829;BME280;37881;48.024;8.774;2023-08-24T10:47:45;93829.84;;;40.72;30.52
51829;BME280;37881;48.024;8.774;2023-08-24T10:50:13;93831.63;;;38.39;33.56
51829;BME280;37881;48.024;8.774;2023-08-24T10:52:43;93819.34;;;39.38;32.32
51829;BME280;37881;48.024;8.774;2023-08-24T10:55:30;93816.88;;;40.06;30.37
51829;BME280;37881;48.024;8.774;2023-08-24T10:57:59;93819.94;;;38.95;31.53
51829;BME280;37881;48.024;8.774;2023-08-24T11:00:28;93819.47;;;37.62;33.79
51829;BME280;37881;48.024;8.774;2023-08-24T11:02:55;93814.97;;;37.78;35.36
51829;BME280;37881;48.024;8.774;2023-08-24T11:05:27;93811.44;;;39.17;33.46
51829;BME280;37881;48.024;8.774;2023-08-24T11:07:58;93814.75;;;37.47;35.21
51829;BME280;37881;48.024;8.774;2023-08-24T11:10:45;93812.47;;;36.82;35.46
51829;BME280;37881;48.024;8.774;2023-08-24T11:13:13;93803.59;;;35.98;37.20
51829;BME280;37881;48.024;8.774;2023-08-24T11:15:47;93807.50;;;36.82;36.49
51829;BME280;37881;48.024;8.774;2023-08-24T11:18:29;93803.59;;;38.17;35.60
51829;BME280;37881;48.024;8.774;2023-08-24T11:21:03;93799.31;;;37.80;35.72
51829;BME280;37881;48.024;8.774;2023-08-24T11:23:31;93794.09;;;37.49;34.87
51829;BME280;37881;48.024;8.774;2023-08-24T11:25:58;93804.88;;;37.21;36.37
51829;BME280;37881;48.024;8.774;2023-08-24T11:28:28;93795.31;;;37.46;36.21
51829;BME280;37881;48.024;8.774;2023-08-24T11:30:56;93797.88;;;36.60;35.66
51829;BME280;37881;48.024;8.774;2023-08-24T11:35:56;93792.41;;;38.02;33.46
51829;BME280;37881;48.024;8.774;2023-08-24T11:38:23;93789.19;;;37.78;33.72
51829;BME280;37881;48.024;8.774;2023-08-24T11:40:50;93792.38;;;38.51;33.71
51829;BME280;37881;48.024;8.774;2023-08-24T11:43:24;93788.53;;;36.77;36.26
51829;BME280;37881;48.024;8.774;2023-08-24T11:45:54;93786.06;;;35.59;35.76
51829;BME280;37881;48.024;8.774;2023-08-24T11:48:25;93779.47;;;36.26;34.96
51829;BME280;37881;48.024;8.774;2023-08-24T11:50:57;93790.13;;;36.70;33.68
51829;BME280;37881;48.024;8.774;2023-08-24T11:53:24;93780.44;;;37.20;34.17
51829;BME280;37881;48.024;8.774;2023-08-24T11:55:53;93773.44;;;37.31;33.08
51829;BME280;37881;48.024;8.774;2023-08-24T11:58:31;93781.56;;;36.26;34.35
51829;BME280;37881;48.024;8.774;2023-08-24T12:00:58;93777.19;;;36.25;34.63
51829;BME280;37881;48.024;8.774;2023-08-24T12:03:25;93769.06;;;36.21;34.45
51829;BME280;37881;48.024;8.774;2023-08-24T12:05:52;93780.31;;;36.91;33.03
51829;BME280;37881;48.024;8.774;2023-08-24T12:08:19;93775.41;;;36.12;33.67
51829;BME280;37881;48.024;8.774;2023-08-24T12:10:46;93767.78;;;35.79;35.25
51829;BME280;37881;48.024;8.774;2023-08-24T12:13:12;93759.75;;;35.43;35.24
51829;BME280;37881;48.024;8.774;2023-08-24T12:15:40;93761.41;;;35.89;34.51
51829;BME280;37881;48.024;8.774;2023-08-24T12:18:12;93754.53;;;35.74;35.18
51829;BME280;37881;48.024;8.774;2023-08-24T12:20:40;93753.00;;;35.73;35.20
51829;BME280;37881;48.024;8.774;2023-08-24T12:23:09;93748.75;;;35.82;35.69
51829;BME280;37881;48.024;8.774;2023-08-24T12:25:37;93759.63;;;36.55;34.95
51829;BME280;37881;48.024;8.774;2023-08-24T12:28:14;93741.16;;;34.67;37.49
51829;BME280;37881;48.024;8.774;2023-08-24T12:30:49;93735.00;;;34.45;38.81
51829;BME280;37881;48.024;8.774;2023-08-24T12:33:28;93736.66;;;34.81;38.24
51829;BME280;37881;48.024;8.774;2023-08-24T12:35:55;93734.53;;;34.56;39.63
51829;BME280;37881;48.024;8.774;2023-08-24T12:38:23;93738.75;;;34.55;38.90
51829;BME280;37881;48.024;8.774;2023-08-24T12:40:51;93736.75;;;34.73;38.56
51829;BME280;37881;48.024;8.774;2023-08-24T12:43:18;93733.19;;;34.90;39.05
51829;BME280;37881;48.024;8.774;2023-08-24T12:45:45;93731.38;;;34.04;40.43
51829;BME280;37881;48.024;8.774;2023-08-24T12:48:12;93730.72;;;33.80;42.13
51829;BME280;37881;48.024;8.774;2023-08-24T12:50:39;93726.56;;;33.74;41.27
51829;BME280;37881;48.024;8.774;2023-08-24T12:53:05;93719.41;;;33.42;43.38
51829;BME280;37881;48.024;8.774;2023-08-24T12:55:39;93713.38;;;34.01;42.82
51829;BME280;37881;48.024;8.774;2023-08-24T12:58:06;93705.69;;;34.27;41.03
51829;BME280;37881;48.024;8.774;2023-08-24T13:00:33;93704.03;;;34.74;40.65
51829;BME280;37881;48.024;8.774;2023-08-24T13:03:00;93698.81;;;34.30;41.21
51829;BME280;37881;48.024;8.774;2023-08-24T13:05:27;93696.00;;;34.22;42.49
51829;BME280;37881;48.024;8.774;2023-08-24T13:07:54;93689.56;;;33.74;42.21